Terminal Aerodrome Forecast
Issued by NWS

Home | Current Version | Previous Version | Text Only | Print | Product List | Glossary On
Versions: 1 2 3 4 5 6 7 8 9 10 11 12 13 14 15 16
000
FTUS44 KLZK 222300
TAFHRO
TAF
KHRO 222320Z 2300/2324 11006KT P6SM VCSH BKN050 OVC100
     FM231400 15008KT P6SM SCT050 BKN100
     FM232200 15005KT P6SM VCTS SCT035CB SCT080=

USA.gov is the U.S. government's official web portal to all federal, state and local government web resources and services.